createdAt,value
2019-02-14T00:01:12.994Z,3.30
2019-02-14T00:04:18.076Z,3.30
2019-02-14T00:07:23.244Z,3.30
2019-02-14T00:10:28.293Z,3.30
2019-02-14T00:13:33.339Z,3.30
2019-02-14T00:16:38.469Z,3.30
2019-02-14T00:19:43.520Z,3.20
2019-02-14T00:22:48.579Z,3.20
2019-02-14T00:25:53.540Z,3.20
2019-02-14T00:28:58.671Z,3.20
2019-02-14T00:32:03.795Z,3.20
2019-02-14T00:35:09.070Z,3.20
2019-02-14T00:38:14.050Z,3.20
2019-02-14T00:41:19.088Z,3.10
2019-02-14T00:44:24.056Z,3.10
2019-02-14T00:47:29.114Z,3.00
2019-02-14T00:50:34.151Z,3.00
2019-02-14T00:53:39.380Z,2.90
2019-02-14T00:56:44.415Z,2.90
2019-02-14T00:59:49.544Z,2.80
2019-02-14T01:02:54.535Z,2.70
2019-02-14T01:05:59.565Z,2.70
2019-02-14T01:09:05.703Z,2.70
2019-02-14T01:12:11.127Z,2.70
2019-02-14T01:15:17.836Z,2.70
2019-02-14T01:18:22.947Z,2.70
2019-02-14T01:21:28.049Z,2.70
2019-02-14T01:24:33.179Z,2.70
2019-02-14T01:27:38.147Z,2.70
2019-02-14T01:30:43.263Z,2.70
2019-02-14T01:33:48.305Z,2.70
2019-02-14T01:36:53.262Z,2.70
2019-02-14T01:39:58.385Z,2.70
2019-02-14T01:43:03.434Z,2.60
2019-02-14T01:46:08.458Z,2.60
2019-02-14T01:49:13.512Z,2.60
2019-02-14T01:52:18.553Z,2.60
2019-02-14T01:55:23.680Z,2.70
2019-02-14T01:58:28.739Z,2.70
2019-02-14T02:01:33.851Z,2.70
2019-02-14T02:04:38.815Z,2.80
2019-02-14T02:07:43.775Z,2.70
2019-02-14T02:10:48.819Z,2.70
2019-02-14T02:13:53.986Z,2.70
2019-02-14T02:16:58.923Z,2.70
2019-02-14T02:20:04.258Z,2.70
2019-02-14T02:23:09.310Z,2.70
2019-02-14T02:26:14.401Z,2.70
2019-02-14T02:29:19.368Z,2.70
2019-02-14T02:32:24.420Z,2.60
2019-02-14T02:35:29.454Z,2.60
2019-02-14T02:38:34.560Z,2.50
2019-02-14T02:41:39.604Z,2.50
2019-02-14T02:44:44.634Z,2.50
2019-02-14T02:47:49.670Z,2.50
2019-02-14T02:50:54.707Z,2.50
2019-02-14T02:53:59.762Z,2.50
2019-02-14T02:57:04.859Z,2.50
2019-02-14T03:00:13.181Z,2.50
2019-02-14T03:03:18.136Z,2.50
2019-02-14T03:06:23.163Z,2.50
2019-02-14T03:09:28.284Z,2.50
2019-02-14T03:12:33.456Z,2.50
2019-02-14T03:15:38.439Z,2.50
2019-02-14T03:18:43.479Z,2.50
2019-02-14T03:21:48.649Z,2.50
2019-02-14T03:24:53.619Z,2.40
2019-02-14T03:27:58.563Z,2.50
2019-02-14T03:31:03.619Z,2.40
2019-02-14T03:34:08.652Z,2.50
2019-02-14T03:37:13.671Z,2.50
2019-02-14T03:40:18.702Z,2.50
2019-02-14T03:43:23.787Z,2.50
2019-02-14T03:46:28.830Z,2.60
2019-02-14T03:49:33.808Z,2.60
2019-02-14T03:52:38.860Z,2.60
2019-02-14T03:55:44.319Z,2.60
2019-02-14T03:58:49.415Z,2.70
2019-02-14T04:01:54.543Z,2.70
2019-02-14T04:04:59.515Z,2.70
2019-02-14T04:08:04.665Z,2.70
2019-02-14T04:11:09.694Z,2.70
2019-02-14T04:14:14.753Z,2.80
2019-02-14T04:17:19.863Z,2.80
2019-02-14T04:20:24.983Z,2.90
2019-02-14T04:23:29.955Z,2.90
2019-02-14T04:26:34.995Z,2.90
2019-02-14T04:29:39.945Z,2.80
2019-02-14T04:32:45.008Z,2.80
2019-02-14T04:35:50.006Z,2.80
2019-02-14T04:38:54.983Z,2.80
2019-02-14T04:42:00.031Z,2.70
2019-02-14T04:45:05.552Z,2.70
2019-02-14T04:48:10.595Z,2.70
2019-02-14T04:51:15.720Z,2.60
2019-02-14T04:54:20.755Z,2.60
2019-02-14T04:57:25.723Z,2.60
2019-02-14T05:00:30.828Z,2.50
2019-02-14T05:03:35.876Z,2.50
2019-02-14T05:06:44.330Z,2.50
2019-02-14T05:09:47.661Z,2.50
2019-02-14T05:12:52.639Z,2.50
2019-02-14T05:15:57.631Z,2.50
2019-02-14T05:19:02.609Z,2.50
2019-02-14T05:22:07.743Z,2.50
2019-02-14T05:25:12.931Z,2.60
2019-02-14T05:28:17.979Z,2.60
2019-02-14T05:31:23.007Z,2.60
2019-02-14T05:34:28.127Z,2.60
2019-02-14T05:37:33.090Z,2.70
2019-02-14T05:40:38.132Z,2.70
2019-02-14T05:43:43.275Z,2.80
2019-02-14T05:46:48.392Z,2.80
2019-02-14T05:49:53.444Z,2.80
2019-02-14T05:52:58.568Z,2.80
2019-02-14T05:56:03.681Z,2.90
2019-02-14T05:59:08.656Z,2.90
2019-02-14T06:02:14.728Z,2.90
2019-02-14T06:05:19.696Z,3.00
2019-02-14T06:08:24.679Z,3.00
2019-02-14T06:11:29.712Z,3.00
2019-02-14T06:14:34.693Z,3.10
2019-02-14T06:17:39.823Z,3.10
2019-02-14T06:20:44.883Z,3.00
2019-02-14T06:23:49.860Z,3.00
2019-02-14T06:26:54.856Z,3.00
2019-02-14T06:29:59.882Z,3.00
2019-02-14T06:33:05.194Z,2.90
2019-02-14T06:36:10.176Z,2.90
2019-02-14T06:39:15.223Z,2.80
2019-02-14T06:42:20.210Z,2.80
2019-02-14T06:45:25.280Z,2.70
2019-02-14T06:48:30.339Z,2.60
2019-02-14T06:51:35.388Z,2.60
2019-02-14T06:54:40.435Z,2.60
2019-02-14T06:57:45.471Z,2.60
2019-02-14T07:00:50.507Z,2.60
2019-02-14T07:03:55.531Z,2.70
2019-02-14T07:07:00.634Z,2.70
2019-02-14T07:10:06.146Z,2.80
2019-02-14T07:13:11.222Z,2.80
2019-02-14T07:16:16.275Z,2.90
2019-02-14T07:19:21.405Z,3.00
2019-02-14T07:22:26.538Z,3.00
2019-02-14T07:25:31.650Z,3.00
2019-02-14T07:28:36.620Z,3.00
2019-02-14T07:31:41.730Z,3.10
2019-02-14T07:34:46.813Z,3.20
2019-02-14T07:37:51.858Z,3.20
2019-02-14T07:40:57.064Z,3.20
2019-02-14T07:44:02.247Z,3.30
2019-02-14T07:47:07.377Z,3.40
2019-02-14T07:50:12.525Z,3.40
2019-02-14T07:53:17.632Z,3.50
2019-02-14T07:56:22.654Z,3.60
2019-02-14T07:59:27.779Z,3.70
2019-02-14T08:02:32.907Z,3.80
2019-02-14T08:05:37.951Z,3.80
2019-02-14T08:08:44.221Z,3.90
2019-02-14T08:11:49.323Z,4.00
2019-02-14T08:14:54.387Z,4.00
2019-02-14T08:17:59.416Z,4.10
2019-02-14T08:21:04.464Z,4.20
2019-02-14T08:24:09.568Z,4.20
2019-02-14T08:27:14.624Z,4.30
2019-02-14T08:30:19.675Z,4.30
2019-02-14T08:33:24.724Z,4.30
2019-02-14T08:36:29.771Z,4.40
2019-02-14T08:39:35.856Z,4.40
2019-02-14T08:42:40.925Z,4.50
2019-02-14T08:45:46.034Z,4.50
2019-02-14T08:48:51.163Z,4.60
2019-02-14T08:51:56.480Z,4.70
2019-02-14T08:55:01.532Z,4.80
2019-02-14T08:58:06.648Z,4.80
2019-02-14T09:01:11.694Z,4.90
2019-02-14T09:04:16.655Z,5.00
2019-02-14T09:07:21.700Z,5.10
2019-02-14T09:10:26.824Z,5.20
2019-02-14T09:13:31.881Z,5.30
2019-02-14T09:16:36.852Z,5.40
2019-02-14T09:19:41.989Z,5.60
2019-02-14T09:22:47.025Z,5.70
2019-02-14T09:25:52.076Z,5.80
2019-02-14T09:28:57.051Z,5.90
2019-02-14T09:32:02.101Z,6.00
2019-02-14T09:35:07.451Z,6.20
2019-02-14T09:38:12.555Z,6.30
2019-02-14T09:41:17.685Z,6.40
2019-02-14T09:44:22.750Z,6.40
2019-02-14T09:47:27.936Z,6.50
2019-02-14T09:50:33.102Z,6.50
2019-02-14T09:53:38.233Z,6.50
2019-02-14T09:56:43.290Z,6.50
2019-02-14T09:59:48.265Z,6.60
2019-02-14T10:02:53.306Z,6.60
2019-02-14T10:05:58.442Z,6.70
2019-02-14T10:09:05.750Z,6.70
2019-02-14T10:12:10.980Z,6.80
2019-02-14T10:15:16.232Z,6.90
2019-02-14T10:18:21.335Z,7.00
2019-02-14T10:21:26.459Z,7.10
2019-02-14T10:24:31.562Z,7.20
2019-02-14T10:27:36.675Z,7.30
2019-02-14T10:30:41.776Z,7.30
2019-02-14T10:33:46.819Z,7.40
2019-02-14T10:36:51.867Z,7.50
2019-02-14T10:39:56.901Z,7.60
2019-02-14T10:43:01.867Z,7.60
2019-02-14T10:46:06.963Z,7.60
2019-02-14T10:49:12.171Z,7.60
2019-02-14T10:52:17.209Z,7.60
2019-02-14T10:55:22.334Z,7.60
2019-02-14T10:58:27.458Z,7.50
2019-02-14T11:01:32.516Z,7.50
2019-02-14T11:04:37.647Z,7.50
2019-02-14T11:07:42.785Z,7.50
2019-02-14T11:10:47.975Z,7.60
2019-02-14T11:13:53.030Z,7.60
2019-02-14T11:16:58.156Z,7.70
2019-02-14T11:20:03.267Z,7.90
2019-02-14T11:23:08.347Z,7.90
2019-02-14T11:26:13.581Z,8.00
2019-02-14T11:29:18.723Z,8.10
2019-02-14T11:32:23.756Z,8.30
2019-02-14T11:35:28.870Z,8.40
2019-02-14T11:38:40.379Z,8.50
2019-02-14T11:41:40.688Z,8.50
2019-02-14T11:44:45.834Z,8.50
2019-02-14T11:47:50.966Z,8.60
2019-02-14T11:50:56.024Z,8.60
2019-02-14T11:54:01.055Z,8.60
2019-02-14T11:57:06.035Z,8.60
2019-02-14T12:00:14.689Z,8.60
2019-02-14T12:03:19.671Z,8.70
2019-02-14T12:06:24.710Z,8.70
2019-02-14T12:09:29.777Z,8.70
2019-02-14T12:12:34.831Z,8.80
2019-02-14T12:15:39.803Z,8.90
2019-02-14T12:18:44.863Z,9.00
2019-02-14T12:21:49.902Z,9.10
2019-02-14T12:24:57.702Z,9.20
2019-02-14T12:28:02.800Z,9.40
2019-02-14T12:31:07.814Z,9.60
2019-02-14T12:34:12.919Z,9.80
2019-02-14T12:37:19.988Z,10.10
2019-02-14T12:40:25.103Z,10.30
2019-02-14T12:43:30.140Z,10.50
2019-02-14T12:46:35.232Z,10.70
2019-02-14T12:49:40.344Z,10.90
2019-02-14T12:52:45.319Z,10.90
2019-02-14T12:55:50.458Z,10.90
2019-02-14T12:58:55.525Z,10.90
2019-02-14T13:02:00.503Z,10.70
2019-02-14T13:05:06.238Z,10.60
2019-02-14T13:08:11.293Z,10.40
2019-02-14T13:11:16.431Z,10.20
2019-02-14T13:14:21.487Z,10.10
2019-02-14T13:17:26.552Z,10.00
2019-02-14T13:20:31.533Z,9.90
2019-02-14T13:23:36.702Z,9.80
2019-02-14T13:26:41.691Z,9.80
2019-02-14T13:29:46.727Z,9.80
2019-02-14T13:32:51.848Z,9.80
2019-02-14T13:35:57.045Z,9.80
2019-02-14T13:39:02.149Z,9.80
2019-02-14T13:42:07.364Z,9.80
2019-02-14T13:45:13.956Z,9.80
2019-02-14T13:48:18.924Z,9.80
2019-02-14T13:51:23.996Z,9.80
2019-02-14T13:54:28.967Z,9.80
2019-02-14T13:57:34.092Z,9.80
2019-02-14T14:00:39.054Z,9.80
2019-02-14T14:03:44.096Z,9.70
2019-02-14T14:06:49.052Z,9.70
2019-02-14T14:09:54.039Z,9.70
2019-02-14T14:12:59.157Z,9.70
2019-02-14T14:16:04.200Z,9.70
2019-02-14T14:19:10.071Z,9.70
2019-02-14T14:22:15.121Z,9.70
2019-02-14T14:25:20.193Z,9.60
2019-02-14T14:28:25.215Z,9.60
2019-02-14T14:31:30.313Z,9.60
2019-02-14T14:34:35.346Z,9.60
2019-02-14T14:37:40.485Z,9.60
2019-02-14T14:40:45.533Z,9.60
2019-02-14T14:44:08.040Z,9.60
2019-02-14T14:47:18.540Z,9.60
2019-02-14T14:50:23.644Z,9.60
2019-02-14T14:53:30.733Z,9.60
2019-02-14T14:56:35.690Z,9.60
2019-02-14T14:59:40.712Z,9.60
2019-02-14T15:02:45.697Z,9.60
2019-02-14T15:05:50.808Z,9.60
2019-02-14T15:08:55.889Z,9.60
2019-02-14T15:12:00.881Z,9.50
2019-02-14T15:15:06.156Z,9.50
2019-02-14T15:18:11.192Z,9.50
2019-02-14T15:21:16.161Z,9.50
2019-02-14T15:24:21.235Z,9.50
2019-02-14T15:27:26.280Z,9.50
2019-02-14T15:30:31.259Z,9.50
2019-02-14T15:33:36.249Z,9.50
2019-02-14T15:36:41.298Z,9.50
2019-02-14T15:39:46.326Z,9.50
2019-02-14T15:42:51.372Z,9.40
2019-02-14T15:45:56.319Z,9.50
2019-02-14T15:49:01.351Z,9.50
2019-02-14T15:52:07.737Z,9.50
2019-02-14T15:55:12.893Z,9.40
2019-02-14T15:58:17.939Z,9.40
2019-02-14T16:01:22.892Z,9.40
2019-02-14T16:04:28.908Z,9.40
2019-02-14T16:07:36.844Z,9.30
2019-02-14T16:10:41.588Z,9.20
2019-02-14T16:13:46.625Z,9.20
2019-02-14T16:16:51.616Z,9.20
2019-02-14T16:19:57.642Z,9.20
2019-02-14T16:23:04.202Z,9.20
2019-02-14T16:26:10.179Z,9.20
2019-02-14T16:29:15.211Z,9.20
2019-02-14T16:32:20.196Z,9.20
2019-02-14T16:35:25.152Z,9.10
2019-02-14T16:38:30.204Z,9.00
2019-02-14T16:41:35.263Z,9.00
2019-02-14T16:44:40.224Z,9.00
2019-02-14T16:47:45.186Z,8.90
2019-02-14T16:50:50.316Z,8.90
2019-02-14T16:53:55.332Z,8.80
2019-02-14T16:57:00.442Z,8.80
2019-02-14T17:00:06.670Z,8.70
2019-02-14T17:03:11.652Z,8.70
2019-02-14T17:06:16.697Z,8.70
2019-02-14T17:09:21.845Z,8.60
2019-02-14T17:12:27.433Z,8.50
2019-02-14T17:15:32.553Z,8.40
2019-02-14T17:18:37.534Z,8.40
2019-02-14T17:21:42.598Z,8.30
2019-02-14T17:24:47.560Z,8.20
2019-02-14T17:27:52.544Z,8.10
2019-02-14T17:30:57.591Z,8.00
2019-02-14T17:34:02.623Z,8.00
2019-02-14T17:37:07.668Z,7.90
2019-02-14T17:40:12.763Z,7.80
2019-02-14T17:43:17.888Z,7.70
2019-02-14T17:46:22.855Z,7.70
2019-02-14T17:49:27.906Z,7.60
2019-02-14T17:52:32.931Z,7.60
2019-02-14T17:55:39.377Z,7.50
2019-02-14T17:58:44.465Z,7.40
2019-02-14T18:01:49.756Z,7.40
2019-02-14T18:04:54.760Z,7.30
2019-02-14T18:07:59.747Z,7.30
2019-02-14T18:11:04.804Z,7.20
2019-02-14T18:14:09.862Z,7.20
2019-02-14T18:17:14.832Z,7.10
2019-02-14T18:20:19.876Z,7.10
2019-02-14T18:23:24.996Z,7.00
2019-02-14T18:26:30.087Z,6.90
2019-02-14T18:29:35.225Z,6.90
2019-02-14T18:32:40.320Z,6.80
2019-02-14T18:35:45.636Z,6.80
2019-02-14T18:38:50.676Z,6.70
2019-02-14T18:41:55.802Z,6.70
2019-02-14T18:45:00.838Z,6.60
2019-02-14T18:48:05.956Z,6.60
2019-02-14T18:51:11.167Z,6.60
2019-02-14T18:54:16.212Z,6.50
2019-02-14T18:57:21.295Z,6.40
2019-02-14T19:00:26.316Z,6.40
2019-02-14T19:03:31.500Z,6.40
2019-02-14T19:06:36.521Z,6.30
2019-02-14T19:09:41.574Z,6.30
2019-02-14T19:12:46.713Z,6.30
2019-02-14T19:15:51.675Z,6.20
2019-02-14T19:18:58.664Z,6.20
2019-02-14T19:22:03.472Z,6.10
2019-02-14T19:25:08.592Z,6.10
2019-02-14T19:28:13.717Z,6.00
2019-02-14T19:31:18.784Z,6.00
2019-02-14T19:34:23.821Z,6.00
2019-02-14T19:37:28.956Z,6.00
2019-02-14T19:40:33.972Z,5.90
2019-02-14T19:43:39.100Z,5.80
2019-02-14T19:46:44.248Z,5.70
2019-02-14T19:49:49.373Z,5.70
2019-02-14T19:52:54.358Z,5.60
2019-02-14T19:55:59.408Z,5.60
2019-02-14T19:59:04.458Z,5.60
2019-02-14T20:02:09.579Z,5.70
2019-02-14T20:05:14.646Z,5.70
2019-02-14T20:08:19.701Z,5.70
2019-02-14T20:11:24.761Z,5.60
2019-02-14T20:14:29.808Z,5.50
2019-02-14T20:17:34.869Z,5.50
2019-02-14T20:20:39.935Z,5.40
2019-02-14T20:23:45.043Z,5.40
2019-02-14T20:26:50.015Z,5.40
2019-02-14T20:29:55.044Z,5.40
2019-02-14T20:33:04.765Z,5.40
2019-02-14T20:36:06.755Z,5.30
2019-02-14T20:39:11.972Z,5.30
2019-02-14T20:42:17.159Z,5.30
2019-02-14T20:45:22.376Z,5.20
2019-02-14T20:48:27.444Z,5.20
2019-02-14T20:51:38.567Z,5.10
2019-02-14T20:54:39.389Z,5.00
2019-02-14T20:57:45.100Z,5.00
2019-02-14T21:00:50.351Z,4.90
2019-02-14T21:03:55.393Z,4.90
2019-02-14T21:07:00.439Z,4.80
2019-02-14T21:10:05.597Z,4.70
2019-02-14T21:13:10.660Z,4.60
2019-02-14T21:16:15.824Z,4.60
2019-02-14T21:19:21.037Z,4.50
2019-02-14T21:22:26.262Z,4.50
2019-02-14T21:25:31.480Z,4.50
2019-02-14T21:28:36.564Z,4.40
2019-02-14T21:31:41.951Z,4.40
2019-02-14T21:34:46.982Z,4.40
2019-02-14T21:37:52.164Z,4.40
2019-02-14T21:40:57.363Z,4.50
2019-02-14T21:44:02.483Z,4.50
2019-02-14T21:47:07.677Z,4.50
2019-02-14T21:50:12.953Z,4.40
2019-02-14T21:53:18.067Z,4.40
2019-02-14T21:56:23.097Z,4.40
2019-02-14T21:59:28.235Z,4.40
2019-02-14T22:02:33.345Z,4.30
2019-02-14T22:05:38.483Z,4.30
2019-02-14T22:08:43.646Z,4.30
2019-02-14T22:11:48.709Z,4.20
2019-02-14T22:14:55.808Z,4.10
2019-02-14T22:18:00.944Z,4.10
2019-02-14T22:21:06.074Z,4.10
2019-02-14T22:24:12.501Z,4.10
2019-02-14T22:27:17.679Z,4.10
2019-02-14T22:30:22.803Z,4.10
2019-02-14T22:33:27.860Z,4.10
2019-02-14T22:36:32.941Z,4.10
2019-02-14T22:39:37.987Z,4.00
2019-02-14T22:42:46.983Z,4.10
2019-02-14T22:45:49.885Z,4.00
2019-02-14T22:48:55.018Z,4.00
2019-02-14T22:51:59.975Z,4.00
2019-02-14T22:55:05.301Z,3.90
2019-02-14T22:58:10.276Z,3.90
2019-02-14T23:01:15.574Z,3.90
2019-02-14T23:04:20.551Z,3.80
2019-02-14T23:07:25.684Z,3.80
2019-02-14T23:10:30.814Z,3.80
2019-02-14T23:13:35.959Z,3.70
2019-02-14T23:16:41.103Z,3.70
2019-02-14T23:19:46.242Z,3.70
2019-02-14T23:22:51.275Z,3.70
2019-02-14T23:25:56.269Z,3.70
2019-02-14T23:29:01.329Z,3.70
2019-02-14T23:32:06.300Z,3.60
2019-02-14T23:35:11.422Z,3.60
2019-02-14T23:38:16.396Z,3.60
2019-02-14T23:41:21.354Z,3.60
2019-02-14T23:44:27.067Z,3.50
2019-02-14T23:47:32.059Z,3.50
2019-02-14T23:50:37.105Z,3.50
2019-02-14T23:53:42.163Z,3.50
2019-02-14T23:56:47.280Z,3.50
2019-02-14T23:59:52.340Z,3.40
